Time;durP1;ratioP1;P1;durP2;ratioP2;P2;SDS_P1;SDS_P2;PMS_P1;PMS_P2;Temp;Humidity;BMP_temperature;BMP_pressure;BME280_temperature;BME280_humidity;BME280_pressure;Samples;Min_cycle;Max_cycle;Signal;HPM_P1;HPM_P2
2020/12/19 00:00:26;;;;;;;57.98;25.32;;;;;;;2.25;82.21;101569.22;1769651;80;21370;-48
2020/12/19 00:02:54;;;;;;;56.77;25.30;;;;;;;2.18;82.42;101563.31;1769942;80;21139;-48
2020/12/19 00:05:22;;;;;;;55.92;25.20;;;;;;;2.08;82.54;101571.00;1752345;81;21165;-48
2020/12/19 00:07:50;;;;;;;59.63;26.97;;;;;;;2.01;83.05;101571.17;1769302;80;21144;-49
2020/12/19 00:10:17;;;;;;;54.50;26.95;;;;;;;2.06;83.51;101569.75;1742635;81;21146;-49
2020/12/19 00:12:48;;;;;;;58.63;26.90;;;;;;;2.14;83.69;101572.14;1743189;81;21628;-48
2020/12/19 00:15:16;;;;;;;61.77;27.60;;;;;;;2.20;83.65;101570.20;1742946;81;21030;-49
2020/12/19 00:17:44;;;;;;;65.55;26.85;;;;;;;2.26;83.51;101573.54;1742755;81;21129;-49
2020/12/19 00:20:12;;;;;;;58.38;26.77;;;;;;;2.29;83.39;101576.06;1742875;81;21129;-49
2020/12/19 00:22:39;;;;;;;50.48;25.88;;;;;;;2.34;83.52;101572.87;1742863;81;21149;-48
2020/12/19 00:25:07;;;;;;;53.83;25.00;;;;;;;2.36;83.55;101573.69;1713898;81;21886;-49
2020/12/19 00:27:34;;;;;;;54.73;25.80;;;;;;;2.39;83.41;101574.91;1733950;81;21006;-49
2020/12/19 00:30:05;;;;;;;52.65;24.87;;;;;;;2.42;83.33;101570.90;1742967;81;21166;-49
2020/12/19 00:32:33;;;;;;;54.43;26.50;;;;;;;2.43;83.27;101575.23;1743048;81;21140;-49
2020/12/19 00:35:02;;;;;;;59.03;26.65;;;;;;;2.43;83.27;101575.23;1731043;81;22659;-49
2020/12/19 00:37:30;;;;;;;52.45;26.60;;;;;;;2.44;83.04;101576.94;1743003;81;21182;-49
2020/12/19 00:39:57;;;;;;;56.45;27.48;;;;;;;2.45;82.85;101566.89;1742872;81;21029;-49
2020/12/19 00:42:25;;;;;;;60.28;26.33;;;;;;;2.48;82.91;101574.64;1742927;81;22170;-49
2020/12/19 00:44:53;;;;;;;51.92;25.50;;;;;;;2.47;82.81;101572.94;1742615;81;20998;-47
2020/12/19 00:47:21;;;;;;;52.00;23.42;;;;;;;2.49;82.62;101571.12;1742245;81;22103;-48
2020/12/19 00:49:48;;;;;;;51.45;24.75;;;;;;;2.47;82.62;101570.31;1719553;81;22956;-49
2020/12/19 00:52:20;;;;;;;57.65;25.65;;;;;;;2.48;82.60;101568.58;1731865;81;21151;-48
2020/12/19 00:54:48;;;;;;;57.93;26.60;;;;;;;2.47;82.42;101572.94;1750541;79;21140;-48
2020/12/19 00:57:16;;;;;;;58.13;27.05;;;;;;;2.48;82.67;101570.72;1769620;80;21113;-48
2020/12/19 00:59:44;;;;;;;56.13;26.82;;;;;;;2.50;82.73;101570.70;1769611;80;21105;-49
2020/12/19 01:02:11;;;;;;;51.23;23.07;;;;;;;2.49;82.61;101580.28;1736604;81;21202;-49
2020/12/19 01:04:39;;;;;;;45.98;22.02;;;;;;;2.46;82.27;101570.38;1730818;81;21149;-49
2020/12/19 01:07:10;;;;;;;51.28;22.85;;;;;;;2.34;81.91;101572.44;1742934;81;21494;-49
2020/12/19 01:09:38;;;;;;;52.50;22.10;;;;;;;2.18;81.93;101568.08;1731185;81;21128;-49
2020/12/19 01:12:06;;;;;;;46.35;22.15;;;;;;;2.04;82.23;101574.16;1743123;81;21889;-49
2020/12/19 01:14:33;;;;;;;48.92;23.25;;;;;;;1.91;82.55;101565.34;1742789;81;21354;-48
2020/12/19 01:17:04;;;;;;;50.98;23.90;;;;;;;1.90;83.33;101569.30;1742834;81;21189;-49
2020/12/19 01:19:32;;;;;;;47.80;23.73;;;;;;;2.06;84.11;101568.45;1743225;81;21132;-48
2020/12/19 01:21:59;;;;;;;49.05;23.42;;;;;;;2.06;84.11;101568.45;1742835;81;20987;-48
2020/12/19 01:24:27;;;;;;;44.08;23.30;;;;;;;2.18;84.32;101574.61;1742837;81;21129;-48
2020/12/19 01:26:54;;;;;;;46.42;22.75;;;;;;;2.27;84.10;101578.73;1730740;81;21453;-48
2020/12/19 01:29:22;;;;;;;45.15;21.97;;;;;;;2.35;83.86;101575.46;1743214;81;21713;-48
2020/12/19 01:31:50;;;;;;;42.25;20.88;;;;;;;2.39;83.58;101578.83;1730693;81;21002;-48
2020/12/19 01:34:18;;;;;;;45.40;21.70;;;;;;;2.43;83.37;101579.14;1735335;81;21923;-49
2020/12/19 01:36:47;;;;;;;46.05;21.60;;;;;;;2.43;83.06;101578.30;1748141;79;21152;-49
2020/12/19 01:39:14;;;;;;;41.85;20.85;;;;;;;2.45;83.28;101580.42;1769553;80;21184;-48
2020/12/19 01:41:42;;;;;;;42.53;20.82;;;;;;;2.49;83.29;101582.05;1742753;81;21144;-48
2020/12/19 01:44:09;;;;;;;42.13;20.88;;;;;;;2.52;82.96;101574.12;1716864;81;21152;-48
2020/12/19 01:47:01;;;;;;;44.13;19.42;;;;;;;2.54;82.92;101580.16;1736345;81;21547;-48
2020/12/19 01:49:31;;;;;;;43.63;20.55;;;;;;;2.55;82.74;101577.95;1718141;81;22297;-48
2020/12/19 01:52:01;;;;;;;40.70;20.02;;;;;;;2.56;82.62;101581.41;1742705;81;21370;-48
2020/12/19 01:54:29;;;;;;;40.63;20.55;;;;;;;2.56;82.79;101584.89;1730521;81;21190;-48
2020/12/19 01:56:58;;;;;;;40.75;19.60;;;;;;;2.59;82.84;101583.50;1742930;81;21179;-49
2020/12/19 01:59:27;;;;;;;39.92;19.55;;;;;;;2.63;82.66;101579.02;1743069;81;21657;-48
2020/12/19 02:01:56;;;;;;;44.30;20.85;;;;;;;2.61;82.58;101585.61;1736568;81;21154;-48
2020/12/19 02:04:25;;;;;;;40.65;20.32;;;;;;;2.62;82.39;101579.92;1742604;81;21187;-49
2020/12/19 02:06:55;;;;;;;38.85;18.77;;;;;;;2.64;82.23;101579.42;1742642;81;21141;-48
2020/12/19 02:09:26;;;;;;;39.38;20.45;;;;;;;2.68;82.22;101580.17;1742732;81;21133;-48
2020/12/19 02:11:54;;;;;;;41.30;19.47;;;;;;;2.71;82.13;101581.39;1737657;81;22003;-48
2020/12/19 02:14:22;;;;;;;41.05;19.20;;;;;;;2.73;82.23;101579.16;1750515;81;21952;-48
2020/12/19 02:17:05;;;;;;;39.23;20.08;;;;;;;2.76;82.22;101580.80;1769712;80;21363;-48
2020/12/19 02:19:33;;;;;;;39.67;20.60;;;;;;;2.80;82.05;101581.12;1742743;81;21137;-48
2020/12/19 02:22:01;;;;;;;40.08;19.45;;;;;;;2.82;81.74;101581.09;1730680;81;21129;-48
2020/12/19 02:24:28;;;;;;;37.65;18.82;;;;;;;2.82;81.52;101577.16;1742997;81;21129;-48
2020/12/19 02:26:57;;;;;;;38.78;19.48;;;;;;;2.82;81.32;101575.86;1742816;81;21142;-48
2020/12/19 02:29:27;;;;;;;37.53;18.27;;;;;;;2.80;81.27;101575.89;1742906;81;21189;-48
2020/12/19 02:31:56;;;;;;;36.05;19.25;;;;;;;2.83;81.29;101578.87;1730661;81;21030;-48
2020/12/19 02:34:24;;;;;;;29.85;15.88;;;;;;;2.83;81.08;101582.80;1743003;81;22148;-48
2020/12/19 02:36:52;;;;;;;34.15;17.23;;;;;;;2.82;81.07;101582.39;1742792;81;21121;-48
2020/12/19 02:39:19;;;;;;;36.58;18.12;;;;;;;2.67;80.70;101581.95;1735622;81;21116;-48
2020/12/19 02:41:48;;;;;;;34.63;17.95;;;;;;;2.48;80.87;101577.73;1738516;81;21185;-48
2020/12/19 02:44:18;;;;;;;33.28;16.87;;;;;;;2.32;81.12;101579.47;1743039;81;22143;-48
2020/12/19 02:46:46;;;;;;;34.53;17.62;;;;;;;2.19;81.52;101577.62;1743006;81;21014;-48
2020/12/19 02:49:14;;;;;;;34.98;18.77;;;;;;;2.12;82.17;101572.16;1741593;80;21179;-48
2020/12/19 02:51:42;;;;;;;38.55;19.48;;;;;;;2.15;82.74;101577.30;1733009;81;21755;-48
2020/12/19 02:54:09;;;;;;;39.13;20.85;;;;;;;2.24;83.09;101575.34;1742735;81;21256;-48
2020/12/19 02:56:37;;;;;;;41.60;19.73;;;;;;;2.29;83.27;101580.86;1742796;81;21010;-48
2020/12/19 02:59:05;;;;;;;36.03;18.67;;;;;;;2.36;83.27;101579.78;1742898;81;21148;-48
2020/12/19 03:01:33;;;;;;;35.80;17.20;;;;;;;2.39;82.98;101572.30;1736771;81;21141;-48
2020/12/19 03:04:00;;;;;;;39.08;18.12;;;;;;;2.40;82.95;101568.78;1742948;81;21116;-47
2020/12/19 03:06:30;;;;;;;35.35;17.85;;;;;;;2.41;83.01;101573.11;1730428;81;21149;-47
2020/12/19 03:08:57;;;;;;;37.40;18.05;;;;;;;2.46;83.28;101573.83;1733803;81;21643;-47
2020/12/19 03:11:25;;;;;;;35.65;18.00;;;;;;;2.55;83.38;101571.85;1751920;79;21140;-48
2020/12/19 03:13:53;;;;;;;34.43;18.57;;;;;;;2.64;83.37;101572.89;1769524;80;21106;-48
2020/12/19 03:16:20;;;;;;;38.35;19.02;;;;;;;2.68;83.25;101582.36;1730796;81;21144;-47
2020/12/19 03:18:48;;;;;;;36.63;19.70;;;;;;;2.70;83.16;101582.30;1742965;81;21367;-48
2020/12/19 03:21:16;;;;;;;35.45;18.90;;;;;;;2.69;82.86;101584.50;1743206;81;21610;-47
2020/12/19 03:23:44;;;;;;;38.88;19.15;;;;;;;2.67;82.73;101585.87;1742974;81;21137;-48
2020/12/19 03:26:11;;;;;;;38.23;19.10;;;;;;;2.63;82.67;101582.51;1742724;81;21153;-48
2020/12/19 03:28:39;;;;;;;37.53;18.82;;;;;;;2.59;82.55;101576.97;1742965;81;22133;-48
2020/12/19 03:31:06;;;;;;;36.60;18.65;;;;;;;2.58;82.57;101578.30;1742845;81;21368;-48
2020/12/19 03:33:34;;;;;;;38.45;18.57;;;;;;;2.59;82.76;101578.27;1730657;81;21144;-48
2020/12/19 03:36:02;;;;;;;37.25;19.05;;;;;;;2.62;82.92;101579.48;1743197;81;22100;-48
2020/12/19 03:38:29;;;;;;;42.62;20.02;;;;;;;2.68;82.88;101589.33;1741764;81;21935;-48
2020/12/19 03:40:57;;;;;;;39.00;19.92;;;;;;;2.71;82.85;101587.49;1748006;81;21582;-48
2020/12/19 03:43:25;;;;;;;36.03;17.80;;;;;;;2.72;82.65;101589.64;1769539;80;21280;-48
2020/12/19 03:45:52;;;;;;;37.88;18.60;;;;;;;2.70;82.56;101588.83;1737481;81;21152;-49
2020/12/19 03:48:20;;;;;;;36.40;18.12;;;;;;;2.68;82.62;101588.89;1717894;81;20991;-49
2020/12/19 03:50:48;;;;;;;35.43;18.55;;;;;;;2.66;82.58;101585.00;1733331;81;21670;-49
2020/12/19 03:53:16;;;;;;;42.78;19.85;;;;;;;2.68;82.74;101591.50;1745839;79;21136;-49
2020/12/19 03:55:44;;;;;;;39.40;20.12;;;;;;;2.71;82.70;101588.80;1752325;79;21188;-49
2020/12/19 03:58:11;;;;;;;38.88;19.67;;;;;;;2.70;82.59;101583.59;1753588;79;22292;-49
2020/12/19 04:00:39;;;;;;;38.28;19.92;;;;;;;2.65;82.46;101586.37;1751034;79;21147;-49
2020/12/19 04:03:07;;;;;;;40.65;20.15;;;;;;;2.60;82.50;101586.95;1752705;79;21129;-49
2020/12/19 04:05:35;;;;;;;39.45;18.37;;;;;;;2.56;82.51;101582.28;1753832;79;21120;-49
2020/12/19 04:08:02;;;;;;;31.37;15.35;;;;;;;2.57;82.59;101584.42;1753923;81;22687;-49
2020/12/19 04:10:32;;;;;;;34.40;16.48;;;;;;;2.49;82.28;101588.59;1753847;79;21128;-48
2020/12/19 04:13:00;;;;;;;35.15;17.05;;;;;;;2.38;82.33;101588.03;1750768;79;22146;-48
2020/12/19 04:15:27;;;;;;;31.42;15.50;;;;;;;2.24;82.64;101584.48;1753934;78;21149;-48
2020/12/19 04:17:55;;;;;;;36.38;18.40;;;;;;;2.13;83.04;101584.80;1754693;81;21141;-49
2020/12/19 04:20:23;;;;;;;40.55;18.45;;;;;;;2.08;83.71;101582.32;1754033;81;21946;-48
2020/12/19 04:22:50;;;;;;;39.33;19.52;;;;;;;2.10;84.32;101580.95;1753693;79;21014;-49
2020/12/19 04:25:18;;;;;;;38.85;19.32;;;;;;;2.11;84.29;101587.46;1753662;81;21140;-49
2020/12/19 04:27:46;;;;;;;44.55;20.15;;;;;;;2.15;84.43;101580.38;1753925;81;21160;-49
2020/12/19 04:30:14;;;;;;;34.75;19.20;;;;;;;2.19;84.39;101588.55;1750560;79;21101;-48
2020/12/19 04:32:41;;;;;;;39.98;20.12;;;;;;;2.24;84.46;101572.29;1753538;81;21375;-49
2020/12/19 04:35:09;;;;;;;38.53;19.95;;;;;;;2.35;84.56;101570.67;1753772;79;21675;-49
2020/12/19 04:37:36;;;;;;;40.48;19.50;;;;;;;2.43;84.31;101573.92;1769794;80;20986;-48
2020/12/19 04:40:05;;;;;;;42.65;20.27;;;;;;;2.50;83.96;101566.77;1742873;81;21149;-48
2020/12/19 04:42:34;;;;;;;45.15;22.00;;;;;;;2.59;83.75;101571.73;1742825;81;21124;-48
2020/12/19 04:45:04;;;;;;;43.90;21.30;;;;;;;2.63;83.29;101576.41;1679399;83;21649;-48
2020/12/19 04:47:31;;;;;;;44.98;21.05;;;;;;;2.66;83.28;101580.23;1739482;81;21170;-48
2020/12/19 04:49:59;;;;;;;40.75;18.67;;;;;;;2.66;82.70;101577.62;1730326;81;21460;-48
2020/12/19 04:52:27;;;;;;;42.45;20.57;;;;;;;2.62;82.74;101576.88;1769620;80;22113;-48
2020/12/19 04:54:55;;;;;;;41.65;20.00;;;;;;;2.64;82.73;101577.69;1742724;81;21113;-48
2020/12/19 04:57:23;;;;;;;39.92;20.02;;;;;;;2.67;82.50;101576.72;1742927;81;21197;-48
2020/12/19 04:59:50;;;;;;;40.58;19.02;;;;;;;2.66;82.12;101579.77;1738230;81;21172;-48
2020/12/19 05:02:18;;;;;;;34.38;17.87;;;;;;;2.65;81.89;101575.91;1731866;81;22006;-53
2020/12/19 05:04:46;;;;;;;39.30;19.17;;;;;;;2.59;81.57;101573.48;1731332;81;21125;-49
2020/12/19 05:07:14;;;;;;;39.48;19.75;;;;;;;2.54;81.32;101573.63;1742868;81;21156;-49
2020/12/19 05:09:43;;;;;;;41.58;19.70;;;;;;;2.48;81.27;101576.41;1742730;81;21194;-49
2020/12/19 05:12:12;;;;;;;35.65;17.30;;;;;;;2.45;81.33;101573.42;1742677;81;21010;-49
2020/12/19 05:14:39;;;;;;;36.17;19.30;;;;;;;2.44;81.39;101583.94;1742828;81;21548;-48
2020/12/19 05:17:07;;;;;;;43.78;20.55;;;;;;;2.40;81.62;101575.31;1742752;81;21156;-48
2020/12/19 05:19:34;;;;;;;42.90;20.27;;;;;;;2.43;81.74;101580.92;1742654;81;21138;-48
2020/12/19 05:22:03;;;;;;;53.50;22.98;;;;;;;2.45;82.04;101581.27;1742699;81;21185;-48
2020/12/19 05:24:36;;;;;;;53.52;22.60;;;;;;;2.47;82.01;101579.93;1742789;81;21129;-49
2020/12/19 05:27:04;;;;;;;43.50;20.30;;;;;;;2.47;81.78;101588.61;1738851;81;20994;-49
2020/12/19 05:29:34;;;;;;;47.70;20.45;;;;;;;2.48;81.88;101590.33;1735717;81;21109;-49
2020/12/19 05:32:01;;;;;;;42.45;20.48;;;;;;;2.53;82.02;101593.26;1737494;81;21112;-49
2020/12/19 05:34:29;;;;;;;41.58;20.25;;;;;;;2.55;82.07;101590.16;1736447;81;21447;-49
2020/12/19 05:36:56;;;;;;;45.55;22.60;;;;;;;2.57;82.05;101594.45;1736698;81;22022;-49
2020/12/19 05:39:24;;;;;;;45.55;22.13;;;;;;;2.61;81.97;101599.13;1737816;81;21577;-49
2020/12/19 05:41:52;;;;;;;42.75;22.13;;;;;;;2.63;81.94;101604.73;1735829;81;21152;-49
2020/12/19 05:44:21;;;;;;;40.03;20.57;;;;;;;2.57;81.26;101598.80;1738743;81;21785;-49
2020/12/19 05:46:49;;;;;;;39.20;20.75;;;;;;;2.40;81.08;101608.45;1735292;81;22549;-49
2020/12/19 05:49:17;;;;;;;37.60;19.82;;;;;;;2.21;81.39;101612.41;1712736;81;21015;-49
2020/12/19 05:51:45;;;;;;;45.25;22.13;;;;;;;2.09;81.84;101618.42;1735667;81;21218;-50
2020/12/19 05:54:15;;;;;;;43.33;21.57;;;;;;;1.97;82.40;101617.84;1751265;81;21137;-49
2020/12/19 05:56:45;;;;;;;43.50;22.27;;;;;;;1.99;83.42;101619.97;1769847;80;21133;-49
2020/12/19 05:59:15;;;;;;;44.27;20.48;;;;;;;2.09;83.99;101623.65;1742973;81;21364;-48
2020/12/19 06:01:45;;;;;;;44.67;21.45;;;;;;;2.19;84.16;101633.80;1742248;81;21145;-48
2020/12/19 06:04:14;;;;;;;42.20;20.77;;;;;;;2.26;84.03;101629.71;1740813;81;21172;-48
2020/12/19 06:06:47;;;;;;;37.33;18.30;;;;;;;2.35;83.94;101629.46;1739974;81;21115;-48
2020/12/19 06:09:16;;;;;;;41.85;19.95;;;;;;;2.43;83.98;101639.25;1733122;81;22127;-48
2020/12/19 06:11:58;;;;;;;39.45;19.05;;;;;;;2.50;83.97;101642.11;1749779;80;21161;-48
2020/12/19 06:14:26;;;;;;;44.65;20.82;;;;;;;2.59;83.94;101647.98;1743945;80;22083;-48
2020/12/19 06:16:55;;;;;;;39.15;20.70;;;;;;;2.68;83.65;101650.77;1740728;81;21012;-48
2020/12/19 06:19:25;;;;;;;42.88;20.62;;;;;;;2.75;83.59;101651.88;1739266;81;21108;-48
2020/12/19 06:21:55;;;;;;;40.05;19.85;;;;;;;2.84;83.48;101657.73;1726375;81;21106;-48
2020/12/19 06:24:47;;;;;;;40.50;19.37;;;;;;;2.91;83.10;101659.27;1739216;81;21374;-48
2020/12/19 06:27:27;;;;;;;39.08;19.82;;;;;;;2.95;82.75;101663.52;1752724;80;21038;-48
2020/12/19 06:29:55;;;;;;;42.25;19.82;;;;;;;2.97;82.35;101670.86;1739146;81;21145;-48
2020/12/19 06:32:26;;;;;;;42.25;19.45;;;;;;;2.99;82.41;101673.42;1734581;80;21125;-48
2020/12/19 06:35:09;;;;;;;47.93;22.90;;;;;;;3.04;82.53;101682.86;1749450;80;21125;-48
2020/12/19 06:37:43;;;;;;;50.73;21.05;;;;;;;3.10;82.38;101683.12;1739960;80;21421;-48
2020/12/19 06:40:20;;;;;;;43.42;21.23;;;;;;;3.14;82.10;101682.59;1735988;80;20983;-48
2020/12/19 06:43:11;;;;;;;45.92;21.80;;;;;;;3.16;81.91;101687.33;1732547;80;21165;-48
2020/12/19 06:45:39;;;;;;;68.92;29.55;;;;;;;3.17;81.66;101681.19;1737224;81;21128;-48
2020/12/19 06:48:32;;;;;;;47.55;22.98;;;;;;;3.15;81.59;101683.00;1735325;81;21121;-48
2020/12/19 06:51:03;;;;;;;48.55;22.62;;;;;;;3.13;81.46;101688.26;1737465;81;21195;-48
2020/12/19 06:53:32;;;;;;;49.83;23.02;;;;;;;3.13;81.61;101686.95;1737184;81;22036;-48
2020/12/19 06:56:00;;;;;;;56.45;24.47;;;;;;;3.16;81.82;101685.55;1742276;80;21036;-48
2020/12/19 06:58:33;;;;;;;64.42;25.90;;;;;;;3.16;81.88;101679.01;1740135;81;21125;-48
2020/12/19 07:01:26;;;;;;;61.35;25.15;;;;;;;3.16;81.82;101679.48;1736066;81;21133;-48
2020/12/19 07:03:54;;;;;;;49.45;22.82;;;;;;;3.14;81.81;101682.13;1725430;81;21145;-49
2020/12/19 07:06:22;;;;;;;47.17;22.87;;;;;;;3.12;81.75;101680.47;1738403;81;21148;-49
2020/12/19 07:08:51;;;;;;;49.23;23.87;;;;;;;3.10;81.89;101679.19;1738269;81;22116;-49
2020/12/19 07:11:40;;;;;;;47.98;23.35;;;;;;;3.10;82.12;101675.27;1722337;81;21157;-49
2020/12/19 07:14:15;;;;;;;40.35;20.72;;;;;;;3.15;82.21;101677.77;1737801;81;21485;-49
2020/12/19 07:16:46;;;;;;;41.98;19.98;;;;;;;3.09;82.08;101673.55;1736457;81;21563;-49
2020/12/19 07:19:24;;;;;;;45.12;21.15;;;;;;;2.99;82.15;101678.65;1735330;81;21906;-49
2020/12/19 07:21:55;;;;;;;48.05;20.70;;;;;;;2.88;82.38;101674.59;1742847;81;21114;-49
2020/12/19 07:24:23;;;;;;;47.53;22.02;;;;;;;2.77;82.71;101673.60;1764271;80;21724;-48
2020/12/19 07:26:52;;;;;;;46.50;21.30;;;;;;;2.70;83.13;101672.06;1744310;80;21094;-48
2020/12/19 07:29:22;;;;;;;47.73;22.35;;;;;;;2.74;83.64;101675.00;1750802;80;21320;-49
2020/12/19 07:32:01;;;;;;;52.25;21.62;;;;;;;2.82;83.85;101672.61;1732337;81;22088;-48
2020/12/19 07:34:30;;;;;;;43.65;20.80;;;;;;;2.89;84.13;101672.84;1732055;81;21037;-48
2020/12/19 07:36:57;;;;;;;41.75;20.43;;;;;;;2.99;84.19;101671.67;1755578;80;21116;-48
2020/12/19 07:39:25;;;;;;;47.23;22.50;;;;;;;3.05;84.14;101670.19;1750211;81;21584;-49
2020/12/19 07:42:08;;;;;;;48.13;23.35;;;;;;;3.08;83.94;101674.02;1754921;80;21187;-49
2020/12/19 07:44:37;;;;;;;44.23;20.60;;;;;;;3.10;83.77;101674.83;1728233;80;21172;-49
2020/12/19 07:47:12;;;;;;;47.30;23.20;;;;;;;3.10;83.52;101680.06;1746436;80;21033;-49
2020/12/19 07:49:46;;;;;;;45.05;25.97;;;;;;;3.05;83.31;101682.39;1711244;80;37851;-49
2020/12/19 07:52:23;;;;;;;50.88;23.60;;;;;;;3.10;83.21;101687.91;1738436;81;21130;-49
2020/12/19 07:55:01;;;;;;;47.50;24.12;;;;;;;3.15;83.12;101686.92;1753450;81;23150;-49
2020/12/19 07:57:33;;;;;;;42.45;21.23;;;;;;;3.14;83.07;101696.52;1753425;81;22216;-49
2020/12/19 08:00:03;;;;;;;47.85;23.38;;;;;;;3.14;83.33;101696.52;1753464;81;21113;-49
2020/12/19 08:02:35;;;;;;;47.33;23.18;;;;;;;3.19;83.47;101697.23;1738617;81;22198;-49
2020/12/19 08:05:02;;;;;;;47.40;23.55;;;;;;;3.21;83.39;101693.25;1732076;79;26564;-49
2020/12/19 08:07:31;;;;;;;55.28;24.80;;;;;;;3.21;83.21;101690.63;1763862;80;21184;-48
2020/12/19 08:10:04;;;;;;;51.65;24.70;;;;;;;3.24;83.23;101701.00;1760747;80;21147;-48
2020/12/19 08:12:32;;;;;;;52.25;25.35;;;;;;;3.28;83.19;101698.70;1727135;81;20959;-48
2020/12/19 08:15:06;;;;;;;50.33;24.05;;;;;;;3.32;83.20;101700.33;1736547;81;21149;-48
2020/12/19 08:17:37;;;;;;;47.60;24.40;;;;;;;3.38;83.22;101696.68;1734117;81;21939;-48
2020/12/19 08:20:04;;;;;;;43.63;23.62;;;;;;;3.44;83.26;101700.42;1708803;81;21620;-48
2020/12/19 08:22:32;;;;;;;46.80;22.87;;;;;;;3.52;83.50;101701.03;1732561;81;21143;-48
2020/12/19 08:25:00;;;;;;;47.50;25.95;;;;;;;3.65;83.74;101699.34;1735460;81;21128;-48
2020/12/19 08:27:33;;;;;;;53.25;25.88;;;;;;;3.73;83.38;101701.23;1735739;81;21141;-48
2020/12/19 08:30:18;;;;;;;52.13;26.77;;;;;;;3.81;83.05;101694.45;1735284;81;21106;-48
2020/12/19 08:33:01;;;;;;;54.33;25.43;;;;;;;3.86;82.81;101692.55;1735025;81;21361;-48
2020/12/19 08:35:32;;;;;;;50.70;25.92;;;;;;;3.92;82.44;101689.72;1737099;81;21145;-48
2020/12/19 08:38:05;;;;;;;47.88;24.90;;;;;;;3.97;82.33;101687.80;1730866;81;25129;-48
2020/12/19 08:40:46;;;;;;;49.65;25.52;;;;;;;4.05;82.28;101677.05;1838414;74;22717;-49
2020/12/19 08:43:17;;;;;;;50.12;25.72;;;;;;;4.07;82.18;101682.26;1830516;75;20991;-49
2020/12/19 08:45:49;;;;;;;44.93;23.12;;;;;;;4.11;82.05;101678.16;1861372;75;21429;-49
2020/12/19 08:48:25;;;;;;;40.85;21.93;;;;;;;4.16;81.91;101675.39;1820982;77;20975;-49
2020/12/19 08:50:54;;;;;;;41.90;21.75;;;;;;;4.11;81.43;101672.91;1797856;78;20956;-49
2020/12/19 08:53:25;;;;;;;40.38;21.77;;;;;;;3.94;81.03;101668.26;1805885;78;21014;-49
2020/12/19 08:55:54;;;;;;;44.18;21.95;;;;;;;3.79;81.16;101674.84;1785488;78;20988;-49
2020/12/19 08:58:27;;;;;;;44.23;22.13;;;;;;;3.66;81.54;101673.09;1781722;80;21188;-49
2020/12/19 09:00:59;;;;;;;44.98;24.20;;;;;;;3.61;82.07;101668.45;1788741;79;21162;-49
2020/12/19 09:03:33;;;;;;;49.00;26.50;;;;;;;3.66;82.82;101663.09;1781692;80;20992;-49
2020/12/19 09:06:06;;;;;;;46.08;25.23;;;;;;;3.76;83.13;101653.98;1779597;80;21114;-49
2020/12/19 09:08:40;;;;;;;44.67;24.90;;;;;;;3.83;82.79;101654.66;1781743;80;21122;-49
2020/12/19 09:11:09;;;;;;;44.93;23.42;;;;;;;3.87;82.70;101654.96;1774246;80;21927;-49
2020/12/19 09:13:37;;;;;;;48.13;25.08;;;;;;;3.92;82.53;101654.35;1780449;80;21006;-49
2020/12/19 09:16:09;;;;;;;47.03;24.75;;;;;;;3.94;82.31;101645.98;1780521;80;21138;-49
2020/12/19 09:18:38;;;;;;;39.88;23.32;;;;;;;3.95;82.14;101656.00;1778435;80;21204;-49
2020/12/19 09:21:07;;;;;;;42.60;21.57;;;;;;;3.95;82.22;101649.02;1759118;80;21108;-49
2020/12/19 09:23:35;;;;;;;42.75;23.22;;;;;;;3.99;82.30;101649.31;1755456;80;21461;-49
2020/12/19 09:26:04;;;;;;;42.48;24.75;;;;;;;4.02;82.33;101652.27;1740704;81;21161;-49
2020/12/19 09:28:32;;;;;;;38.65;23.27;;;;;;;4.05;82.12;101650.84;1717766;81;21168;-49
2020/12/19 09:30:59;;;;;;;39.80;23.15;;;;;;;4.09;82.06;101651.61;1737119;81;22084;-49
2020/12/19 09:33:27;;;;;;;38.63;22.95;;;;;;;4.07;81.75;101650.34;1743388;79;21131;-49
2020/12/19 09:35:55;;;;;;;41.60;24.20;;;;;;;4.05;81.50;101655.25;1751539;79;21204;-49
2020/12/19 09:38:22;;;;;;;40.65;23.02;;;;;;;4.01;81.45;101649.71;1737714;81;21952;-49
2020/12/19 09:40:50;;;;;;;39.10;22.40;;;;;;;4.00;81.75;101647.53;1735387;81;21034;-49
2020/12/19 09:43:18;;;;;;;39.73;21.55;;;;;;;4.02;81.73;101651.42;1737439;81;21138;-49
2020/12/19 09:45:45;;;;;;;41.48;22.87;;;;;;;4.02;81.72;101647.50;1738829;81;21132;-49
2020/12/19 09:48:14;;;;;;;37.23;20.80;;;;;;;4.05;81.77;101649.54;1742210;79;21500;-49
2020/12/19 09:50:42;;;;;;;37.88;21.37;;;;;;;4.05;81.53;101650.84;1742567;81;22398;-49
2020/12/19 09:53:09;;;;;;;37.90;20.37;;;;;;;4.03;81.31;101647.89;1746187;79;21007;-49
2020/12/19 09:55:37;;;;;;;37.53;21.97;;;;;;;4.01;81.32;101647.93;1755306;79;21014;-48
2020/12/19 09:58:05;;;;;;;36.50;20.12;;;;;;;3.99;81.37;101649.75;1774394;80;21120;-48
2020/12/19 10:00:33;;;;;;;38.98;22.20;;;;;;;3.98;81.59;101650.66;1778072;80;22009;-48
2020/12/19 10:03:01;;;;;;;42.25;23.95;;;;;;;4.01;81.79;101646.63;1761064;80;21010;-48
2020/12/19 10:05:28;;;;;;;42.95;23.65;;;;;;;4.05;81.87;101650.84;1768344;80;21140;-49
2020/12/19 10:07:57;;;;;;;41.35;21.80;;;;;;;4.08;81.79;101643.36;1781092;79;21909;-49
2020/12/19 10:10:27;;;;;;;38.13;22.02;;;;;;;4.13;81.87;101646.67;1761827;79;21990;-49
2020/12/19 10:12:54;;;;;;;40.83;22.20;;;;;;;4.15;81.51;101647.47;1766568;80;22718;-49
2020/12/19 10:15:22;;;;;;;36.35;21.60;;;;;;;4.14;81.34;101649.69;1768572;80;22164;-48
2020/12/19 10:17:49;;;;;;;37.10;21.62;;;;;;;4.15;81.26;101648.78;1754902;80;21670;-48
2020/12/19 10:20:17;;;;;;;42.15;24.35;;;;;;;4.18;81.42;101647.37;1756338;80;22015;-49
2020/12/19 10:22:47;;;;;;;39.73;23.10;;;;;;;4.21;81.24;101652.50;1764511;80;21127;-47
2020/12/19 10:25:15;;;;;;;39.25;23.38;;;;;;;4.24;81.33;101654.98;1778681;79;21249;-48
2020/12/19 10:27:42;;;;;;;42.03;23.27;;;;;;;4.31;81.49;101645.59;1778739;80;21639;-48
2020/12/19 10:30:10;;;;;;;43.83;24.07;;;;;;;4.28;80.89;101650.51;1773085;80;21993;-48
2020/12/19 10:32:38;;;;;;;39.95;22.52;;;;;;;4.16;80.81;101642.63;1778833;80;20927;-48
2020/12/19 10:35:06;;;;;;;36.75;21.20;;;;;;;4.04;80.96;101643.89;1777248;80;21152;-48
2020/12/19 10:37:34;;;;;;;39.00;21.30;;;;;;;3.95;81.27;101651.63;1779010;80;21409;-49
2020/12/19 10:40:03;;;;;;;41.58;23.83;;;;;;;3.91;81.80;101650.02;1766135;80;21155;-49
2020/12/19 10:42:31;;;;;;;44.50;24.37;;;;;;;3.98;82.20;101645.41;1716169;80;22126;-49
2020/12/19 10:44:59;;;;;;;49.58;23.57;;;;;;;4.04;82.24;101643.89;1752477;79;22182;-49
2020/12/19 10:47:27;;;;;;;46.02;26.50;;;;;;;4.14;82.34;101643.98;1746730;79;20943;-49
2020/12/19 10:49:55;;;;;;;40.43;24.27;;;;;;;4.23;82.24;101648.06;1743590;80;21786;-48
2020/12/19 10:52:24;;;;;;;40.98;23.02;;;;;;;4.27;81.90;101643.55;1750004;79;21610;-49
2020/12/19 10:54:51;;;;;;;40.12;22.73;;;;;;;4.32;81.61;101646.00;1756567;79;20991;-49
2020/12/19 10:57:19;;;;;;;36.50;20.72;;;;;;;4.32;81.52;101635.51;1754827;79;21124;-49
2020/12/19 10:59:47;;;;;;;38.53;22.37;;;;;;;4.36;81.40;101635.80;1756906;79;22099;-49
2020/12/19 11:02:15;;;;;;;41.92;23.95;;;;;;;4.35;81.25;101636.71;1757949;79;21357;-48
2020/12/19 11:04:42;;;;;;;42.95;23.05;;;;;;;4.38;81.45;101638.78;1749984;79;21016;-48
2020/12/19 11:07:10;;;;;;;44.20;24.52;;;;;;;4.41;81.27;101632.56;1747766;79;20959;-49
2020/12/19 11:09:38;;;;;;;41.42;24.02;;;;;;;4.43;81.10;101642.54;1750636;79;20955;-49
2020/12/19 11:12:05;;;;;;;42.90;23.92;;;;;;;4.42;80.95;101636.89;1755401;79;21122;-49
2020/12/19 11:14:33;;;;;;;50.88;27.13;;;;;;;4.41;80.89;101636.49;1751829;79;22155;-49
2020/12/19 11:17:01;;;;;;;51.80;26.55;;;;;;;4.39;80.89;101636.56;1757220;79;21003;-48
2020/12/19 11:19:31;;;;;;;44.50;25.32;;;;;;;4.36;80.89;101637.98;1757742;79;22277;-49
2020/12/19 11:21:58;;;;;;;48.08;26.23;;;;;;;4.34;80.94;101641.12;1756226;79;20983;-49
2020/12/19 11:24:25;;;;;;;49.33;27.60;;;;;;;4.34;81.02;101642.87;1741144;81;20998;-48
2020/12/19 11:26:55;;;;;;;51.80;29.30;;;;;;;4.37;81.21;101644.06;1732136;79;21216;-48